LGSA/CHQ METAR and TAF weather

Enter ICAO airport designator
Station Type Date Time Source
LGSA METAR 2020/10/22 03:50 UTC NOAA

LGSA 220350Z 00000KT 9999 FEW018TCU BKN025 BKN080 17/16 Q1019


Station Type Date Time Source
LGSA Decoded METAR 2020/10/22 03:50 UTC NOAA

Souda Airport , Greece (LGSA) 35-29N 024-07E 151M
Oct 21, 2020 - 11:50 PM EDT / 2020.10.22 0350 UTC
Wind: Calm:0
Visibility: greater than 7 mile(s):0
Sky conditions: mostly cloudy
Weather: Towering cumulus clouds observed
Temperature: 62 F (17 C)
Dew Point: 60 F (16 C)
Relative Humidity: 93%
Pressure (altimeter): 30.09 in. Hg (1019 hPa)
ob: LGSA 220350Z 00000KT 9999 FEW018TCU BKN025 BKN080 17/16 Q1019
cycle: 4

Station Type Date Time Source
LGSA TAF 2020/10/21 18:15 UTC NOAA

TAF LGSA 211700Z 2118/2218 34010KT 9999 FEW018 BKN020
TEMPO 2118/2218 5000 RA SCT008 FEW018TCU BKN020 BKN080 PROB40
TEMPO 2118/2212 2000 TSRA SCT008 FEW018CB BKN020 OVC080

Example: see airport list